Time;durP1;ratioP1;P1;durP2;ratioP2;P2;SDS_P1;SDS_P2;PMS_P1;PMS_P2;Temp;Humidity;BMP_temperature;BMP_pressure;BME280_temperature;BME280_humidity;BME280_pressure;Samples;Min_cycle;Max_cycle;Signal;HPM_P1;HPM_P2
2022/01/24 00:01:19;;;;;;;;;;;20.70;33.10;;;;;;465375;256;1070;-45
2022/01/24 00:03:21;;;;;;;;;;;20.70;33.00;;;;;;465834;256;1080;-45
2022/01/24 00:05:23;;;;;;;;;;;20.70;33.00;;;;;;465444;255;1087;-45
2022/01/24 00:07:25;;;;;;;;;;;20.70;33.00;;;;;;465392;256;1098;-45
2022/01/24 00:09:25;;;;;;;;;;;20.70;33.00;;;;;;465394;256;2465;-45
2022/01/24 00:11:37;;;;;;;;;;;20.80;33.00;;;;;;465507;256;1294;-45
2022/01/24 00:16:17;;;;;;;;;;;20.70;32.90;;;;;;465676;256;1207;-46
2022/01/24 00:18:11;;;;;;;;;;;20.70;32.90;;;;;;465062;256;2084;-45
2022/01/24 00:27:06;;;;;;;;;;;20.80;32.90;;;;;;465407;255;1433;-45
2022/01/24 00:29:07;;;;;;;;;;;20.70;32.90;;;;;;465423;256;2205;-45
2022/01/24 00:31:09;;;;;;;;;;;20.80;32.90;;;;;;465411;255;1070;-45
2022/01/24 00:33:10;;;;;;;;;;;20.80;32.90;;;;;;465432;256;1057;-45
2022/01/24 00:35:11;;;;;;;;;;;20.80;32.90;;;;;;465441;256;1091;-45
2022/01/24 00:37:13;;;;;;;;;;;20.80;32.80;;;;;;465395;256;1148;-45
2022/01/24 00:39:14;;;;;;;;;;;20.80;32.80;;;;;;465785;256;1134;-45
2022/01/24 00:41:18;;;;;;;;;;;20.80;32.90;;;;;;465312;255;1270;-45
2022/01/24 00:43:25;;;;;;;;;;;20.80;32.90;;;;;;465275;256;1560;-45
2022/01/24 00:45:29;;;;;;;;;;;20.80;32.80;;;;;;464982;256;2406;-45
2022/01/24 00:47:26;;;;;;;;;;;20.80;32.80;;;;;;464865;256;2086;-45
2022/01/24 00:49:44;;;;;;;;;;;20.80;32.90;;;;;;465606;256;2201;-45
2022/01/24 00:54:01;;;;;;;;;;;20.80;32.80;;;;;;465792;256;1015;-45
2022/01/24 00:55:53;;;;;;;;;;;20.80;32.90;;;;;;464928;256;1545;-45
2022/01/24 00:57:54;;;;;;;;;;;20.80;32.80;;;;;;465431;255;1207;-45
2022/01/24 00:59:55;;;;;;;;;;;20.80;32.80;;;;;;465849;256;1065;-45
2022/01/24 01:01:57;;;;;;;;;;;20.80;32.80;;;;;;465811;255;1279;-45
2022/01/24 01:03:58;;;;;;;;;;;20.80;32.80;;;;;;465821;256;1070;-45
2022/01/24 01:06:06;;;;;;;;;;;20.80;32.80;;;;;;465346;256;1332;-45
2022/01/24 01:18:07;;;;;;;;;;;20.80;32.90;;;;;;465377;256;2202;-45
2022/01/24 01:19:32;;;;;;;;;;;20.80;32.80;;;;;;465399;256;1318;-45
2022/01/24 01:21:33;;;;;;;;;;;20.80;32.90;;;;;;465759;256;1209;-45
2022/01/24 01:23:36;;;;;;;;;;;20.70;32.90;;;;;;465831;256;1283;-45
2022/01/24 01:25:38;;;;;;;;;;;20.70;32.90;;;;;;465719;256;2007;-45
2022/01/24 01:27:42;;;;;;;;;;;20.70;32.90;;;;;;465275;256;2351;-45
2022/01/24 01:29:50;;;;;;;;;;;20.70;33.00;;;;;;465494;256;2273;-45
2022/01/24 01:31:56;;;;;;;;;;;20.60;33.00;;;;;;465057;256;2275;-45
2022/01/24 01:33:58;;;;;;;;;;;20.60;33.00;;;;;;465132;256;1509;-45
2022/01/24 01:36:04;;;;;;;;;;;20.60;33.00;;;;;;465234;256;2040;-45
2022/01/24 01:38:19;;;;;;;;;;;20.60;33.00;;;;;;465120;256;2224;-45
2022/01/24 01:40:38;;;;;;;;;;;20.60;33.10;;;;;;464321;256;2238;-45
2022/01/24 01:54:13;;;;;;;;;;;20.50;33.10;;;;;;465427;256;1232;-45
2022/01/24 01:56:06;;;;;;;;;;;20.60;33.20;;;;;;465135;256;2221;-45
2022/01/24 01:58:07;;;;;;;;;;;20.50;33.20;;;;;;465573;256;1218;-45
2022/01/24 02:00:08;;;;;;;;;;;20.50;33.20;;;;;;465411;255;1082;-45
2022/01/24 02:02:09;;;;;;;;;;;20.50;33.20;;;;;;465824;256;1007;-45
2022/01/24 02:04:11;;;;;;;;;;;20.50;33.20;;;;;;465376;255;1086;-45
2022/01/24 02:06:12;;;;;;;;;;;20.50;33.20;;;;;;465747;256;1138;-45
2022/01/24 02:08:13;;;;;;;;;;;20.50;33.20;;;;;;465646;255;2205;-45
2022/01/24 02:10:15;;;;;;;;;;;20.50;33.10;;;;;;465358;256;1053;-45
2022/01/24 02:12:18;;;;;;;;;;;20.60;33.00;;;;;;465349;255;1227;-45
2022/01/24 02:14:19;;;;;;;;;;;20.90;32.70;;;;;;465328;256;1704;-45
2022/01/24 02:16:28;;;;;;;;;;;21.10;32.30;;;;;;465415;256;2149;-45
2022/01/24 02:18:30;;;;;;;;;;;21.20;32.10;;;;;;465258;256;2108;-46
2022/01/24 02:20:39;;;;;;;;;;;21.30;31.90;;;;;;465018;256;2548;-45
2022/01/24 02:22:44;;;;;;;;;;;21.40;31.80;;;;;;464821;256;2404;-45
2022/01/24 02:24:52;;;;;;;;;;;21.40;31.70;;;;;;465444;256;2562;-45
2022/01/24 02:26:43;;;;;;;;;;;21.50;31.50;;;;;;465085;256;2285;-45
2022/01/24 02:28:59;;;;;;;;;;;21.60;31.50;;;;;;465480;256;2186;-45
2022/01/24 02:31:06;;;;;;;;;;;21.60;31.40;;;;;;465123;256;2292;-45
2022/01/24 02:32:58;;;;;;;;;;;21.60;31.30;;;;;;464803;256;2192;-45
2022/01/24 02:34:59;;;;;;;;;;;21.70;31.30;;;;;;465559;256;1079;-45
2022/01/24 02:37:00;;;;;;;;;;;21.70;31.20;;;;;;465743;256;1209;-46
2022/01/24 02:39:20;;;;;;;;;;;21.70;31.20;;;;;;465843;256;1052;-45
2022/01/24 02:46:07;;;;;;;;;;;21.80;31.00;;;;;;465399;255;1215;-45
2022/01/24 02:50:29;;;;;;;;;;;21.90;31.00;;;;;;465600;255;2142;-46
2022/01/24 02:52:25;;;;;;;;;;;21.90;31.00;;;;;;464893;256;2327;-45
2022/01/24 02:54:24;;;;;;;;;;;21.90;31.00;;;;;;465260;256;2199;-45
2022/01/24 02:56:25;;;;;;;;;;;22.00;31.00;;;;;;465678;256;1451;-45
2022/01/24 02:58:27;;;;;;;;;;;22.00;30.90;;;;;;465456;256;1492;-46
2022/01/24 03:00:28;;;;;;;;;;;22.00;31.00;;;;;;465774;256;1335;-45
2022/01/24 03:02:29;;;;;;;;;;;22.00;30.90;;;;;;465345;255;1173;-45
2022/01/24 03:04:30;;;;;;;;;;;22.00;30.80;;;;;;465780;256;1140;-45
2022/01/24 03:06:32;;;;;;;;;;;22.10;30.80;;;;;;465590;255;1379;-46
2022/01/24 03:08:33;;;;;;;;;;;22.10;30.80;;;;;;465724;256;2135;-45
2022/01/24 03:10:38;;;;;;;;;;;22.00;30.70;;;;;;465807;256;1349;-46
2022/01/24 03:12:41;;;;;;;;;;;22.10;30.80;;;;;;465266;256;2280;-45
2022/01/24 03:14:40;;;;;;;;;;;22.10;30.80;;;;;;465305;256;2315;-45
2022/01/24 03:16:41;;;;;;;;;;;22.10;30.70;;;;;;465374;255;1609;-46
2022/01/24 03:18:43;;;;;;;;;;;22.10;30.70;;;;;;465413;256;1208;-45
2022/01/24 03:20:44;;;;;;;;;;;22.20;30.80;;;;;;465801;255;1083;-46
2022/01/24 03:22:45;;;;;;;;;;;22.10;30.70;;;;;;465837;256;1374;-46
2022/01/24 03:24:48;;;;;;;;;;;22.20;30.70;;;;;;465400;255;1066;-46
2022/01/24 03:26:48;;;;;;;;;;;22.20;30.70;;;;;;465361;255;1972;-45
2022/01/24 03:28:49;;;;;;;;;;;22.20;30.70;;;;;;465401;256;2163;-45
2022/01/24 03:30:51;;;;;;;;;;;22.20;30.70;;;;;;465359;255;1071;-46
2022/01/24 03:32:52;;;;;;;;;;;22.20;30.60;;;;;;465791;253;1222;-45
2022/01/24 03:34:53;;;;;;;;;;;22.20;30.70;;;;;;465492;256;1110;-46
2022/01/24 03:36:55;;;;;;;;;;;22.30;30.70;;;;;;465756;256;1085;-45
2022/01/24 03:38:56;;;;;;;;;;;22.20;30.60;;;;;;465515;255;1201;-46
2022/01/24 03:40:57;;;;;;;;;;;22.30;30.60;;;;;;465429;255;1066;-46
2022/01/24 03:42:58;;;;;;;;;;;22.30;30.60;;;;;;465413;255;1008;-45
2022/01/24 03:45:03;;;;;;;;;;;22.30;30.60;;;;;;465439;255;1068;-45
2022/01/24 03:47:13;;;;;;;;;;;22.30;30.60;;;;;;465364;256;2685;-46
2022/01/24 03:49:19;;;;;;;;;;;22.30;30.60;;;;;;464775;256;2205;-45
2022/01/24 03:51:09;;;;;;;;;;;22.30;30.60;;;;;;464753;256;2036;-45
2022/01/24 03:53:10;;;;;;;;;;;22.30;30.60;;;;;;465831;255;1088;-46
2022/01/24 03:55:12;;;;;;;;;;;22.30;30.60;;;;;;465781;256;960;-45
2022/01/24 03:57:13;;;;;;;;;;;22.30;30.60;;;;;;465375;256;1234;-45
2022/01/24 03:59:14;;;;;;;;;;;22.40;30.60;;;;;;465543;256;1257;-46
2022/01/24 04:01:16;;;;;;;;;;;22.30;30.50;;;;;;465511;255;1417;-46
2022/01/24 04:03:17;;;;;;;;;;;22.30;30.50;;;;;;465539;256;1238;-45
2022/01/24 04:05:18;;;;;;;;;;;22.40;30.60;;;;;;465387;256;1397;-45
2022/01/24 04:07:20;;;;;;;;;;;22.40;30.60;;;;;;465332;255;1258;-45
2022/01/24 04:09:21;;;;;;;;;;;22.40;30.60;;;;;;465400;256;2202;-45
2022/01/24 04:11:22;;;;;;;;;;;22.40;30.50;;;;;;465663;255;1431;-45
2022/01/24 04:13:28;;;;;;;;;;;22.40;30.50;;;;;;465771;256;1241;-45
2022/01/24 04:15:45;;;;;;;;;;;22.40;30.50;;;;;;465244;256;2121;-46
2022/01/24 04:17:42;;;;;;;;;;;22.40;30.50;;;;;;465242;256;2273;-45
2022/01/24 04:21:59;;;;;;;;;;;22.40;30.50;;;;;;465362;256;1229;-45
2022/01/24 04:24:04;;;;;;;;;;;22.40;30.50;;;;;;465532;256;1310;-45
2022/01/24 04:26:02;;;;;;;;;;;22.40;30.50;;;;;;465253;256;2019;-45
2022/01/24 04:28:03;;;;;;;;;;;22.50;30.50;;;;;;465756;256;1071;-46
2022/01/24 04:30:04;;;;;;;;;;;22.50;30.50;;;;;;465418;256;2174;-45
2022/01/24 04:32:06;;;;;;;;;;;22.50;30.50;;;;;;465353;255;1086;-45
2022/01/24 04:34:07;;;;;;;;;;;22.50;30.50;;;;;;465415;255;1052;-46
2022/01/24 04:36:08;;;;;;;;;;;22.50;30.50;;;;;;465370;256;1070;-46
2022/01/24 04:38:10;;;;;;;;;;;22.50;30.50;;;;;;465609;256;1061;-46
2022/01/24 04:40:11;;;;;;;;;;;22.50;30.50;;;;;;465439;255;1068;-45
2022/01/24 04:42:17;;;;;;;;;;;22.50;30.50;;;;;;465330;256;1048;-45
2022/01/24 04:44:30;;;;;;;;;;;22.50;30.50;;;;;;462873;256;2342;-45
2022/01/24 04:46:29;;;;;;;;;;;22.50;30.40;;;;;;465304;255;2095;-45
2022/01/24 04:50:57;;;;;;;;;;;22.50;30.50;;;;;;466962;255;2122;-45
2022/01/24 04:52:53;;;;;;;;;;;22.50;30.40;;;;;;465836;255;2175;-45
2022/01/24 04:54:47;;;;;;;;;;;22.50;30.40;;;;;;466371;255;2424;-46
2022/01/24 04:56:48;;;;;;;;;;;22.50;30.40;;;;;;467069;254;1224;-45
2022/01/24 04:58:49;;;;;;;;;;;22.60;30.40;;;;;;466501;254;1304;-45
2022/01/24 05:00:51;;;;;;;;;;;22.50;30.40;;;;;;459672;255;1166;-45
2022/01/24 05:02:52;;;;;;;;;;;22.50;30.40;;;;;;466643;254;1103;-46
2022/01/24 05:04:54;;;;;;;;;;;22.60;30.40;;;;;;466656;254;1049;-45
2022/01/24 05:06:55;;;;;;;;;;;22.60;30.40;;;;;;466606;254;1096;-45
2022/01/24 05:08:56;;;;;;;;;;;22.50;30.30;;;;;;466732;254;1194;-46
2022/01/24 05:11:03;;;;;;;;;;;22.60;30.40;;;;;;466632;254;2201;-46
2022/01/24 05:24:35;;;;;;;;;;;22.60;30.40;;;;;;466601;255;1123;-46
2022/01/24 05:26:37;;;;;;;;;;;22.60;30.30;;;;;;466506;254;1364;-46
2022/01/24 05:28:38;;;;;;;;;;;22.60;30.40;;;;;;466632;254;1057;-45
2022/01/24 05:30:39;;;;;;;;;;;22.60;30.30;;;;;;466704;254;2142;-45
2022/01/24 05:32:41;;;;;;;;;;;22.60;30.30;;;;;;467098;254;1072;-46
2022/01/24 05:34:42;;;;;;;;;;;22.70;30.30;;;;;;466574;254;1194;-45
2022/01/24 05:36:43;;;;;;;;;;;22.60;30.30;;;;;;466499;254;1095;-46
2022/01/24 05:38:45;;;;;;;;;;;22.70;30.40;;;;;;466640;254;1209;-46
2022/01/24 05:40:46;;;;;;;;;;;22.70;30.30;;;;;;466874;254;1089;-46
2022/01/24 05:42:48;;;;;;;;;;;22.70;30.30;;;;;;467010;254;1075;-46
2022/01/24 05:44:49;;;;;;;;;;;22.70;30.30;;;;;;466649;254;1215;-45
2022/01/24 05:46:50;;;;;;;;;;;22.70;30.30;;;;;;466474;254;1257;-45
2022/01/24 05:48:52;;;;;;;;;;;22.70;30.30;;;;;;466968;254;1068;-45
2022/01/24 05:50:53;;;;;;;;;;;22.70;30.30;;;;;;466860;254;2189;-46
2022/01/24 05:52:54;;;;;;;;;;;22.70;30.30;;;;;;466503;254;1051;-46
2022/01/24 05:54:56;;;;;;;;;;;22.70;30.30;;;;;;466528;254;1097;-45
2022/01/24 05:56:57;;;;;;;;;;;22.70;30.30;;;;;;466745;254;1269;-46
2022/01/24 05:58:58;;;;;;;;;;;22.70;30.30;;;;;;466538;254;1110;-46
2022/01/24 06:01:00;;;;;;;;;;;22.70;30.30;;;;;;466488;254;1360;-46
2022/01/24 06:03:01;;;;;;;;;;;22.70;30.30;;;;;;466603;254;1274;-45
2022/01/24 06:05:02;;;;;;;;;;;22.70;30.30;;;;;;466554;254;1184;-46
2022/01/24 06:07:03;;;;;;;;;;;22.70;30.30;;;;;;466384;254;1300;-46
2022/01/24 06:09:05;;;;;;;;;;;22.70;30.30;;;;;;466507;254;1126;-45
2022/01/24 06:11:06;;;;;;;;;;;22.70;30.30;;;;;;466496;254;2134;-46
2022/01/24 06:13:07;;;;;;;;;;;22.70;30.30;;;;;;466551;254;1240;-46
2022/01/24 06:15:09;;;;;;;;;;;22.70;30.30;;;;;;466437;254;1315;-45
2022/01/24 06:17:10;;;;;;;;;;;22.70;30.30;;;;;;466631;254;1218;-46
2022/01/24 06:19:12;;;;;;;;;;;22.70;30.30;;;;;;466348;254;1054;-46
2022/01/24 06:21:13;;;;;;;;;;;22.70;30.30;;;;;;466332;254;1067;-45
2022/01/24 06:23:14;;;;;;;;;;;22.70;30.30;;;;;;466446;254;1082;-46
2022/01/24 06:25:21;;;;;;;;;;;22.70;30.30;;;;;;466693;254;1053;-45
2022/01/24 06:27:17;;;;;;;;;;;22.70;30.30;;;;;;466087;255;2329;-45
2022/01/24 06:29:18;;;;;;;;;;;22.70;30.30;;;;;;466366;254;1181;-46
2022/01/24 06:31:20;;;;;;;;;;;22.70;30.20;;;;;;466257;254;2209;-45
2022/01/24 06:33:21;;;;;;;;;;;22.80;30.20;;;;;;466757;254;1070;-45
2022/01/24 06:35:23;;;;;;;;;;;22.80;30.30;;;;;;466623;254;1061;-45
2022/01/24 06:37:24;;;;;;;;;;;22.80;30.30;;;;;;466421;254;1316;-46
2022/01/24 06:39:25;;;;;;;;;;;22.70;30.20;;;;;;466506;254;1053;-46
2022/01/24 06:41:31;;;;;;;;;;;22.80;30.30;;;;;;466441;254;1085;-46
2022/01/24 06:43:28;;;;;;;;;;;22.80;30.30;;;;;;466279;255;2391;-46
2022/01/24 06:45:29;;;;;;;;;;;22.80;30.30;;;;;;463989;254;1421;-45
2022/01/24 06:47:30;;;;;;;;;;;22.80;30.30;;;;;;465842;255;1104;-45
2022/01/24 06:49:32;;;;;;;;;;;22.80;30.30;;;;;;467776;254;1132;-46
2022/01/24 06:51:34;;;;;;;;;;;22.80;30.30;;;;;;467689;254;2138;-46
2022/01/24 06:53:34;;;;;;;;;;;22.80;30.20;;;;;;468002;254;2504;-45
2022/01/24 06:55:36;;;;;;;;;;;22.80;30.30;;;;;;467870;254;1077;-46
2022/01/24 06:57:37;;;;;;;;;;;22.80;30.30;;;;;;467825;254;1065;-45
2022/01/24 06:59:38;;;;;;;;;;;22.80;30.30;;;;;;466713;254;1054;-46
2022/01/24 07:01:40;;;;;;;;;;;22.80;30.20;;;;;;466237;254;1333;-45
2022/01/24 07:03:41;;;;;;;;;;;22.80;30.20;;;;;;466538;254;1160;-45
2022/01/24 07:05:42;;;;;;;;;;;22.80;30.20;;;;;;466255;254;1326;-46
2022/01/24 07:07:44;;;;;;;;;;;22.80;30.20;;;;;;466225;255;1333;-46
2022/01/24 07:09:45;;;;;;;;;;;22.80;30.20;;;;;;466250;254;1180;-46
2022/01/24 07:11:48;;;;;;;;;;;22.80;30.20;;;;;;466225;254;2201;-46
2022/01/24 07:13:49;;;;;;;;;;;22.80;30.10;;;;;;466075;255;2155;-45
2022/01/24 07:15:53;;;;;;;;;;;22.80;30.00;;;;;;466131;255;2269;-46
2022/01/24 07:18:16;;;;;;;;;;;22.90;30.00;;;;;;466046;255;1295;-46
2022/01/24 07:20:04;;;;;;;;;;;22.90;30.00;;;;;;464220;255;2426;-45
2022/01/24 07:22:05;;;;;;;;;;;22.80;29.90;;;;;;464918;256;1076;-46
2022/01/24 07:24:07;;;;;;;;;;;22.90;30.00;;;;;;464928;255;1061;-46
2022/01/24 07:26:08;;;;;;;;;;;22.90;30.00;;;;;;464678;256;1090;-45
2022/01/24 07:28:09;;;;;;;;;;;22.90;30.00;;;;;;464794;256;1073;-45
2022/01/24 07:30:10;;;;;;;;;;;22.90;30.00;;;;;;464796;256;2220;-45
2022/01/24 07:32:13;;;;;;;;;;;22.90;30.00;;;;;;464834;256;1282;-46
2022/01/24 07:34:14;;;;;;;;;;;22.90;30.00;;;;;;464772;256;2497;-45
2022/01/24 07:36:15;;;;;;;;;;;22.90;30.00;;;;;;464977;256;1080;-46
2022/01/24 07:38:16;;;;;;;;;;;22.90;30.00;;;;;;464766;256;1062;-46
2022/01/24 07:40:18;;;;;;;;;;;22.90;30.00;;;;;;464756;256;1177;-46
2022/01/24 07:42:28;;;;;;;;;;;22.80;30.00;;;;;;464743;256;1045;-46
2022/01/24 07:44:20;;;;;;;;;;;22.80;30.00;;;;;;464116;256;2150;-46
2022/01/24 07:46:22;;;;;;;;;;;22.70;30.30;;;;;;464689;256;1180;-46
2022/01/24 07:48:23;;;;;;;;;;;22.50;30.60;;;;;;464737;256;1024;-45
2022/01/24 07:50:24;;;;;;;;;;;22.20;30.90;;;;;;464710;256;2205;-45
2022/01/24 07:52:26;;;;;;;;;;;22.10;31.20;;;;;;464772;256;1275;-45
2022/01/24 07:54:27;;;;;;;;;;;22.00;31.30;;;;;;464627;256;1017;-45
2022/01/24 07:56:28;;;;;;;;;;;21.90;31.30;;;;;;464639;256;1082;-45
2022/01/24 07:58:30;;;;;;;;;;;21.80;31.50;;;;;;464497;256;1277;-45
2022/01/24 08:00:31;;;;;;;;;;;21.70;31.60;;;;;;464411;256;1125;-45
2022/01/24 08:02:33;;;;;;;;;;;21.70;31.70;;;;;;464410;256;1368;-46
2022/01/24 08:04:34;;;;;;;;;;;21.60;31.70;;;;;;464560;256;1264;-46
2022/01/24 08:06:35;;;;;;;;;;;21.60;31.70;;;;;;464723;256;1053;-46
2022/01/24 08:08:37;;;;;;;;;;;21.60;31.80;;;;;;464624;256;1373;-45
2022/01/24 08:10:38;;;;;;;;;;;21.60;31.80;;;;;;464602;256;2197;-46
2022/01/24 08:12:42;;;;;;;;;;;21.50;31.80;;;;;;464597;256;1273;-45
2022/01/24 08:14:41;;;;;;;;;;;21.50;31.90;;;;;;464515;256;2137;-46
2022/01/24 08:16:43;;;;;;;;;;;21.50;31.90;;;;;;464457;256;1206;-45
2022/01/24 08:18:43;;;;;;;;;;;21.40;31.90;;;;;;464561;256;2029;-45
2022/01/24 08:20:45;;;;;;;;;;;21.50;32.00;;;;;;464828;256;1051;-45
2022/01/24 08:22:46;;;;;;;;;;;21.40;31.90;;;;;;464549;256;1166;-45
2022/01/24 08:24:47;;;;;;;;;;;21.40;32.00;;;;;;464604;256;1122;-45
2022/01/24 08:26:49;;;;;;;;;;;21.40;32.00;;;;;;464617;256;1312;-45
2022/01/24 08:28:50;;;;;;;;;;;21.40;32.00;;;;;;464667;255;1194;-46
2022/01/24 08:30:52;;;;;;;;;;;21.30;31.90;;;;;;464425;256;2186;-45
2022/01/24 08:32:53;;;;;;;;;;;21.30;32.00;;;;;;464457;256;1195;-45
2022/01/24 08:34:56;;;;;;;;;;;21.30;32.00;;;;;;464396;256;1071;-45
2022/01/24 08:36:56;;;;;;;;;;;21.30;32.00;;;;;;464451;256;2364;-45
2022/01/24 08:39:07;;;;;;;;;;;21.30;32.10;;;;;;464613;256;1205;-45
2022/01/24 08:41:04;;;;;;;;;;;21.20;32.00;;;;;;464073;252;2376;-46
2022/01/24 08:43:03;;;;;;;;;;;21.20;32.10;;;;;;464291;256;2394;-45
2022/01/24 08:47:21;;;;;;;;;;;21.20;32.00;;;;;;464514;256;1316;-45
2022/01/24 08:49:22;;;;;;;;;;;21.20;32.10;;;;;;464766;256;1388;-45
2022/01/24 08:51:23;;;;;;;;;;;21.20;32.10;;;;;;464563;256;2135;-45
2022/01/24 08:53:25;;;;;;;;;;;21.20;32.20;;;;;;464937;256;1371;-45
2022/01/24 08:55:26;;;;;;;;;;;21.20;32.10;;;;;;464749;256;1528;-45
2022/01/24 08:57:27;;;;;;;;;;;21.10;32.10;;;;;;464715;256;1161;-45
2022/01/24 08:59:30;;;;;;;;;;;21.10;32.10;;;;;;464706;256;1199;-45
2022/01/24 09:01:30;;;;;;;;;;;21.10;32.10;;;;;;464320;256;2179;-46
2022/01/24 09:03:36;;;;;;;;;;;21.10;32.10;;;;;;464614;256;1102;-45
2022/01/24 09:05:34;;;;;;;;;;;21.10;32.00;;;;;;464306;256;2357;-45
2022/01/24 09:07:34;;;;;;;;;;;21.10;32.10;;;;;;464398;256;2074;-45
2022/01/24 09:09:35;;;;;;;;;;;21.10;32.10;;;;;;464652;256;1169;-45
2022/01/24 09:11:37;;;;;;;;;;;21.10;32.10;;;;;;464736;255;2199;-45
2022/01/24 09:13:38;;;;;;;;;;;21.10;32.20;;;;;;464649;256;1108;-45
2022/01/24 09:15:39;;;;;;;;;;;21.00;32.10;;;;;;464524;256;1460;-45
2022/01/24 09:17:42;;;;;;;;;;;21.00;32.20;;;;;;464449;255;1197;-45
2022/01/24 09:19:42;;;;;;;;;;;21.00;32.10;;;;;;464533;256;2131;-45
2022/01/24 09:21:43;;;;;;;;;;;21.00;32.20;;;;;;464611;256;1086;-45
2022/01/24 09:23:45;;;;;;;;;;;21.00;32.20;;;;;;464481;256;1143;-45
2022/01/24 09:25:46;;;;;;;;;;;21.00;32.10;;;;;;464463;256;1274;-45
2022/01/24 09:27:47;;;;;;;;;;;21.00;32.10;;;;;;464432;253;1778;-45
2022/01/24 09:29:49;;;;;;;;;;;21.00;32.10;;;;;;464729;256;1115;-45
2022/01/24 09:31:50;;;;;;;;;;;21.00;32.10;;;;;;464685;256;2182;-45
2022/01/24 09:33:51;;;;;;;;;;;20.90;32.10;;;;;;464749;256;1480;-45
2022/01/24 09:35:58;;;;;;;;;;;21.00;32.20;;;;;;464722;256;1462;-46
2022/01/24 09:37:54;;;;;;;;;;;20.90;32.10;;;;;;464438;256;1686;-45
2022/01/24 09:39:55;;;;;;;;;;;20.90;32.10;;;;;;464596;256;1109;-45
2022/01/24 09:41:57;;;;;;;;;;;20.90;32.10;;;;;;464591;256;1295;-45
2022/01/24 09:43:58;;;;;;;;;;;20.90;32.10;;;;;;464565;256;1238;-44
2022/01/24 09:45:59;;;;;;;;;;;20.90;32.10;;;;;;464717;256;1138;-45
2022/01/24 09:48:00;;;;;;;;;;;20.90;32.10;;;;;;464785;256;1218;-45
2022/01/24 09:50:02;;;;;;;;;;;20.90;32.10;;;;;;464603;256;1111;-45
2022/01/24 09:52:03;;;;;;;;;;;20.90;32.00;;;;;;464540;256;2208;-46
2022/01/24 09:54:04;;;;;;;;;;;20.90;32.00;;;;;;464572;256;1217;-45
2022/01/24 09:56:06;;;;;;;;;;;20.90;32.00;;;;;;464697;256;1119;-45
2022/01/24 09:58:07;;;;;;;;;;;21.00;32.00;;;;;;464823;256;1188;-45
2022/01/24 10:00:08;;;;;;;;;;;20.90;31.90;;;;;;464626;256;1145;-46
2022/01/24 10:02:10;;;;;;;;;;;20.90;32.00;;;;;;464671;255;1351;-45
2022/01/24 10:04:11;;;;;;;;;;;20.90;31.90;;;;;;465938;254;1244;-45
2022/01/24 10:06:12;;;;;;;;;;;20.90;32.00;;;;;;465878;254;1170;-45
2022/01/24 10:08:14;;;;;;;;;;;20.90;32.00;;;;;;465926;254;1227;-45
2022/01/24 10:10:16;;;;;;;;;;;21.00;31.70;;;;;;465980;254;1354;-45
2022/01/24 10:12:29;;;;;;;;;;;21.20;31.40;;;;;;465957;254;2400;-45
2022/01/24 10:16:45;;;;;;;;;;;21.50;30.80;;;;;;465998;255;2032;-46
2022/01/24 10:18:45;;;;;;;;;;;21.60;30.60;;;;;;465908;254;2558;-46
2022/01/24 10:20:46;;;;;;;;;;;21.70;30.40;;;;;;466073;254;1262;-45
2022/01/24 10:22:48;;;;;;;;;;;21.80;30.40;;;;;;465929;254;1369;-45
2022/01/24 10:24:51;;;;;;;;;;;21.80;30.20;;;;;;466030;254;1135;-46
2022/01/24 10:26:50;;;;;;;;;;;21.90;30.20;;;;;;465605;254;2240;-45
2022/01/24 10:28:52;;;;;;;;;;;21.90;30.10;;;;;;465734;254;1254;-46
2022/01/24 10:30:53;;;;;;;;;;;21.90;30.00;;;;;;465609;254;1221;-45
2022/01/24 10:32:55;;;;;;;;;;;22.00;30.10;;;;;;465835;254;2213;-46
2022/01/24 10:34:56;;;;;;;;;;;22.00;30.00;;;;;;466042;255;2199;-45
2022/01/24 10:36:57;;;;;;;;;;;22.00;30.00;;;;;;465757;254;1305;-45
2022/01/24 10:39:05;;;;;;;;;;;22.10;30.00;;;;;;465789;254;1066;-46
2022/01/24 10:41:10;;;;;;;;;;;22.10;29.90;;;;;;465380;255;2055;-46
2022/01/24 10:43:09;;;;;;;;;;;22.10;29.90;;;;;;465596;255;1983;-45
2022/01/24 10:45:10;;;;;;;;;;;22.10;29.90;;;;;;465998;254;1101;-46
2022/01/24 10:47:12;;;;;;;;;;;22.20;29.80;;;;;;466117;254;1309;-46
2022/01/24 10:49:15;;;;;;;;;;;22.20;29.70;;;;;;466043;254;1181;-45
2022/01/24 10:51:14;;;;;;;;;;;22.20;29.70;;;;;;465887;255;2193;-46
2022/01/24 10:53:16;;;;;;;;;;;22.20;29.60;;;;;;465893;254;1260;-46
2022/01/24 10:55:17;;;;;;;;;;;22.30;29.70;;;;;;465693;254;1249;-45
2022/01/24 10:57:18;;;;;;;;;;;22.30;29.70;;;;;;465706;254;1267;-46
2022/01/24 10:59:21;;;;;;;;;;;22.30;29.60;;;;;;466161;254;1099;-45
2022/01/24 11:01:21;;;;;;;;;;;22.30;29.60;;;;;;466154;254;2187;-46
2022/01/24 11:03:23;;;;;;;;;;;22.40;29.60;;;;;;465956;254;1225;-46
2022/01/24 11:05:24;;;;;;;;;;;22.40;29.70;;;;;;465909;254;1290;-45
2022/01/24 11:07:25;;;;;;;;;;;22.40;29.60;;;;;;466143;254;1325;-46
2022/01/24 11:09:27;;;;;;;;;;;22.40;29.60;;;;;;465818;254;1115;-46
2022/01/24 11:11:28;;;;;;;;;;;22.40;29.50;;;;;;465731;254;2141;-45
2022/01/24 11:13:31;;;;;;;;;;;22.40;29.50;;;;;;465787;254;1153;-45
2022/01/24 11:15:31;;;;;;;;;;;22.50;29.50;;;;;;465726;254;2157;-45
2022/01/24 11:17:33;;;;;;;;;;;22.40;29.50;;;;;;465836;254;1608;-45
2022/01/24 11:19:39;;;;;;;;;;;22.50;29.50;;;;;;465953;254;2287;-45
2022/01/24 11:21:35;;;;;;;;;;;22.50;29.50;;;;;;465534;255;2193;-45
2022/01/24 11:23:40;;;;;;;;;;;22.50;29.50;;;;;;465974;254;1138;-46
2022/01/24 11:25:38;;;;;;;;;;;22.50;29.50;;;;;;465947;255;2056;-45
2022/01/24 11:27:39;;;;;;;;;;;22.50;29.50;;;;;;465993;254;1081;-45
2022/01/24 11:29:40;;;;;;;;;;;22.50;29.50;;;;;;466020;254;1328;-46
2022/01/24 11:31:42;;;;;;;;;;;22.50;29.50;;;;;;465911;254;2195;-46
2022/01/24 11:33:43;;;;;;;;;;;22.50;29.50;;;;;;465869;254;1290;-46
2022/01/24 11:35:45;;;;;;;;;;;22.50;29.40;;;;;;465873;254;1242;-46
2022/01/24 11:37:46;;;;;;;;;;;22.50;29.40;;;;;;465735;255;1522;-45
2022/01/24 11:39:47;;;;;;;;;;;22.60;29.50;;;;;;465874;254;1131;-45
2022/01/24 11:41:49;;;;;;;;;;;22.60;29.50;;;;;;465874;254;1091;-46
2022/01/24 11:43:51;;;;;;;;;;;22.60;29.40;;;;;;466092;254;1262;-46
2022/01/24 11:46:00;;;;;;;;;;;22.60;29.30;;;;;;465874;255;2303;-45
2022/01/24 11:47:57;;;;;;;;;;;22.60;29.40;;;;;;465666;255;2266;-45
2022/01/24 11:49:58;;;;;;;;;;;22.60;29.40;;;;;;466051;254;1203;-45
2022/01/24 11:52:00;;;;;;;;;;;22.60;29.40;;;;;;465923;254;2593;-45
2022/01/24 11:54:02;;;;;;;;;;;22.60;29.40;;;;;;466153;254;1653;-45
2022/01/24 11:56:03;;;;;;;;;;;22.60;29.30;;;;;;466052;254;1062;-45
2022/01/24 11:58:04;;;;;;;;;;;22.60;29.40;;;;;;466080;254;1333;-46
2022/01/24 12:00:06;;;;;;;;;;;22.60;29.40;;;;;;466089;254;1072;-45
2022/01/24 12:02:07;;;;;;;;;;;22.60;29.30;;;;;;465941;254;1191;-45
2022/01/24 12:04:08;;;;;;;;;;;22.70;29.30;;;;;;465938;254;1223;-46
2022/01/24 12:06:14;;;;;;;;;;;22.60;29.30;;;;;;465835;254;1089;-46
2022/01/24 12:08:11;;;;;;;;;;;22.60;29.30;;;;;;465612;255;2254;-46
2022/01/24 12:10:12;;;;;;;;;;;22.60;29.30;;;;;;466018;254;1098;-46
2022/01/24 12:12:13;;;;;;;;;;;22.60;29.40;;;;;;465949;254;2193;-46
2022/01/24 12:14:23;;;;;;;;;;;22.70;29.30;;;;;;465960;254;1259;-45
2022/01/24 12:16:16;;;;;;;;;;;22.70;29.30;;;;;;465262;255;2314;-45
2022/01/24 12:18:18;;;;;;;;;;;22.70;29.30;;;;;;465881;254;1358;-45
2022/01/24 12:20:19;;;;;;;;;;;22.70;29.30;;;;;;465726;254;1223;-45
2022/01/24 12:22:20;;;;;;;;;;;22.70;29.20;;;;;;465776;254;1330;-46
2022/01/24 12:24:21;;;;;;;;;;;22.70;29.30;;;;;;466009;254;1106;-46
2022/01/24 12:26:23;;;;;;;;;;;22.70;29.20;;;;;;466063;254;1255;-46
2022/01/24 12:28:24;;;;;;;;;;;22.70;29.30;;;;;;465981;254;1255;-46
2022/01/24 12:30:25;;;;;;;;;;;22.70;29.20;;;;;;465878;254;1281;-45
2022/01/24 12:32:27;;;;;;;;;;;22.70;29.30;;;;;;465807;254;2189;-46
2022/01/24 12:34:29;;;;;;;;;;;22.70;29.20;;;;;;465921;254;1213;-46
2022/01/24 12:36:30;;;;;;;;;;;22.70;29.30;;;;;;465826;254;1268;-45
2022/01/24 12:38:31;;;;;;;;;;;22.70;29.20;;;;;;465877;254;1468;-45
2022/01/24 12:40:38;;;;;;;;;;;22.70;29.20;;;;;;465975;254;1086;-45
2022/01/24 12:42:51;;;;;;;;;;;22.80;29.30;;;;;;465668;255;2382;-46
2022/01/24 12:47:09;;;;;;;;;;;22.80;29.20;;;;;;466076;255;1333;-46
2022/01/24 12:49:10;;;;;;;;;;;22.80;29.20;;;;;;465905;254;1180;-45
2022/01/24 12:51:12;;;;;;;;;;;22.80;29.20;;;;;;465861;254;1164;-46
2022/01/24 12:53:14;;;;;;;;;;;22.80;29.20;;;;;;465917;254;2201;-45
2022/01/24 12:55:14;;;;;;;;;;;22.80;29.20;;;;;;465862;255;1853;-46
2022/01/24 12:57:16;;;;;;;;;;;22.80;29.20;;;;;;465898;254;1333;-45
2022/01/24 12:59:17;;;;;;;;;;;22.80;29.20;;;;;;465961;254;1268;-46
2022/01/24 13:01:18;;;;;;;;;;;22.80;29.20;;;;;;466404;254;1491;-46
2022/01/24 13:03:20;;;;;;;;;;;22.80;29.20;;;;;;466466;254;1198;-45